createdAt,value
2018-08-27T00:00:28.119Z,9.20
2018-08-27T00:01:28.129Z,11.90
2018-08-27T00:02:28.243Z,11.70
2018-08-27T00:03:28.149Z,8.90
2018-08-27T00:04:28.160Z,12.50
2018-08-27T00:05:28.177Z,10.50
2018-08-27T00:06:28.178Z,9.90
2018-08-27T00:07:28.341Z,16.20
2018-08-27T00:08:28.200Z,10.60
2018-08-27T00:09:28.214Z,9.90
2018-08-27T00:10:28.211Z,10.20
2018-08-27T00:11:28.234Z,9.50
2018-08-27T00:12:28.351Z,11.30
2018-08-27T00:13:28.253Z,9.20
2018-08-27T00:14:28.252Z,10.00
2018-08-27T00:15:28.275Z,9.70
2018-08-27T00:16:28.281Z,9.00
2018-08-27T00:17:28.427Z,9.10
2018-08-27T00:18:28.300Z,9.30
2018-08-27T00:19:28.314Z,12.10
2018-08-27T00:20:28.324Z,8.90
2018-08-27T00:21:28.340Z,8.20
2018-08-27T00:22:28.481Z,9.40
2018-08-27T00:23:28.358Z,7.80
2018-08-27T00:24:28.368Z,9.50
2018-08-27T00:25:28.391Z,8.60
2018-08-27T00:26:28.385Z,8.40
2018-08-27T00:27:29.099Z,8.50
2018-08-27T00:28:28.404Z,9.30
2018-08-27T00:29:28.414Z,6.60
2018-08-27T00:30:28.427Z,7.70
2018-08-27T00:31:28.417Z,13.50
2018-08-27T00:32:28.543Z,11.60
2018-08-27T00:33:28.455Z,7.70
2018-08-27T00:34:28.462Z,7.40
2018-08-27T00:35:28.473Z,6.00
2018-08-27T00:36:28.515Z,5.80
2018-08-27T00:37:28.649Z,7.30
2018-08-27T00:38:28.497Z,11.70
2018-08-27T00:39:28.518Z,4.60
2018-08-27T00:40:28.528Z,5.20
2018-08-27T00:41:28.539Z,6.00
2018-08-27T00:42:28.681Z,5.20
2018-08-27T00:43:28.546Z,6.70
2018-08-27T00:44:28.564Z,3.60
2018-08-27T00:45:28.573Z,3.70
2018-08-27T00:46:28.790Z,3.20
2018-08-27T00:47:28.730Z,3.80
2018-08-27T00:48:28.804Z,4.10
2018-08-27T00:49:28.613Z,6.20
2018-08-27T00:50:28.628Z,5.90
2018-08-27T00:51:28.639Z,5.40
2018-08-27T00:52:28.783Z,2.90
2018-08-27T00:53:28.659Z,3.30
2018-08-27T00:54:28.651Z,3.20
2018-08-27T00:55:28.666Z,5.70
2018-08-27T00:56:28.685Z,4.00
2018-08-27T00:57:28.797Z,5.60
2018-08-27T00:58:28.720Z,5.80
2018-08-27T00:59:28.721Z,6.70
2018-08-27T01:00:28.731Z,7.90
2018-08-27T01:01:28.743Z,10.10
2018-08-27T01:02:28.903Z,9.80
2018-08-27T01:03:28.739Z,9.50
2018-08-27T01:04:28.765Z,9.70
2018-08-27T01:05:28.780Z,10.40
2018-08-27T01:06:28.773Z,10.20
2018-08-27T01:07:28.797Z,9.50
2018-08-27T01:08:28.911Z,10.50
2018-08-27T01:09:28.805Z,16.90
2018-08-27T01:10:28.829Z,16.70
2018-08-27T01:11:28.842Z,10.50
2018-08-27T01:12:28.835Z,9.20
2018-08-27T01:13:28.863Z,6.30
2018-08-27T01:14:29.023Z,6.60
2018-08-27T01:15:28.878Z,6.20
2018-08-27T01:16:28.882Z,7.20
2018-08-27T01:17:28.887Z,8.70
2018-08-27T01:18:28.909Z,10.10
2018-08-27T01:19:29.169Z,5.60
2018-08-27T01:20:28.931Z,6.70
2018-08-27T01:21:28.950Z,6.00
2018-08-27T01:22:28.969Z,7.30
2018-08-27T01:23:28.962Z,7.90
2018-08-27T01:24:29.107Z,9.80
2018-08-27T01:25:28.966Z,8.90
2018-08-27T01:26:28.992Z,8.80
2018-08-27T01:27:28.984Z,8.70
2018-08-27T01:28:29.014Z,8.10
2018-08-27T01:29:29.174Z,7.40
2018-08-27T01:30:29.028Z,7.50
2018-08-27T01:31:29.053Z,9.70
2018-08-27T01:32:29.055Z,9.80
2018-08-27T01:33:29.047Z,10.00
2018-08-27T01:34:29.311Z,9.80
2018-08-27T01:35:29.085Z,14.90
2018-08-27T01:36:29.097Z,12.50
2018-08-27T01:37:29.098Z,12.50
2018-08-27T01:38:29.111Z,13.50
2018-08-27T01:39:29.272Z,11.00
2018-08-27T01:40:29.127Z,11.30
2018-08-27T01:41:29.131Z,6.80
2018-08-27T01:42:29.153Z,8.00
2018-08-27T01:43:29.162Z,8.20
2018-08-27T01:44:29.271Z,7.30
2018-08-27T01:45:29.182Z,7.40
2018-08-27T01:46:29.199Z,10.30
2018-08-27T01:47:29.203Z,6.00
2018-08-27T01:48:29.214Z,8.40
2018-08-27T01:49:29.464Z,8.60
2018-08-27T01:50:29.217Z,9.00
2018-08-27T01:51:29.248Z,8.20
2018-08-27T01:52:29.253Z,9.70
2018-08-27T01:53:29.267Z,8.40
2018-08-27T01:54:29.427Z,6.90
2018-08-27T01:55:29.286Z,7.00
2018-08-27T01:56:29.297Z,7.50
2018-08-27T01:57:29.294Z,7.60
2018-08-27T01:58:29.315Z,7.50
2018-08-27T01:59:29.573Z,7.00
2018-08-27T02:00:29.337Z,6.20
2018-08-27T02:01:29.343Z,8.10
2018-08-27T02:02:29.356Z,10.10
2018-08-27T02:03:29.370Z,7.80
2018-08-27T02:04:29.510Z,8.10
2018-08-27T02:05:29.391Z,5.00
2018-08-27T02:06:29.397Z,9.10
2018-08-27T02:07:29.404Z,8.30
2018-08-27T02:08:29.411Z,9.20
2018-08-27T02:09:29.578Z,17.60
2018-08-27T02:10:29.438Z,7.00
2018-08-27T02:11:29.442Z,7.70
2018-08-27T02:12:29.454Z,8.10
2018-08-27T02:13:29.448Z,8.40
2018-08-27T02:14:29.708Z,5.10
2018-08-27T02:15:29.489Z,4.50
2018-08-27T02:16:29.498Z,6.70
2018-08-27T02:17:29.509Z,7.00
2018-08-27T02:18:29.516Z,7.70
2018-08-27T02:19:29.623Z,8.90
2018-08-27T02:20:29.518Z,7.10
2018-08-27T02:21:29.545Z,3.70
2018-08-27T02:22:29.554Z,5.40
2018-08-27T02:23:29.567Z,6.20
2018-08-27T02:24:29.672Z,5.60
2018-08-27T02:25:29.581Z,6.00
2018-08-27T02:26:29.596Z,10.70
2018-08-27T02:27:29.591Z,7.60
2018-08-27T02:28:29.613Z,6.60
2018-08-27T02:29:29.778Z,7.80
2018-08-27T02:30:29.620Z,5.90
2018-08-27T02:31:29.629Z,4.40
2018-08-27T02:32:29.655Z,4.80
2018-08-27T02:33:29.651Z,4.20
2018-08-27T02:34:29.825Z,8.90
2018-08-27T02:35:29.684Z,9.70
2018-08-27T02:36:29.697Z,8.00
2018-08-27T02:37:29.695Z,6.40
2018-08-27T02:38:29.714Z,7.70
2018-08-27T02:39:29.872Z,5.90
2018-08-27T02:40:29.734Z,5.70
2018-08-27T02:41:29.744Z,6.00
2018-08-27T02:42:29.775Z,6.00
2018-08-27T02:43:29.761Z,5.20
2018-08-27T02:44:29.771Z,6.10
2018-08-27T02:45:30.015Z,6.20
2018-08-27T02:46:29.793Z,6.20
2018-08-27T02:47:29.805Z,4.40
2018-08-27T02:48:29.813Z,7.90
2018-08-27T02:49:29.823Z,5.80
2018-08-27T02:50:29.837Z,6.10
2018-08-27T02:51:29.996Z,7.00
2018-08-27T02:52:29.854Z,6.90
2018-08-27T02:53:29.865Z,6.20
2018-08-27T02:54:29.879Z,4.10
2018-08-27T02:55:29.899Z,5.40
2018-08-27T02:56:29.989Z,4.80
2018-08-27T02:57:29.891Z,5.00
2018-08-27T02:58:29.911Z,4.00
2018-08-27T02:59:29.921Z,3.40
2018-08-27T03:00:30.135Z,5.50
2018-08-27T03:01:30.042Z,7.40
2018-08-27T03:02:29.955Z,5.20
2018-08-27T03:03:29.949Z,5.50
2018-08-27T03:04:30.576Z,3.60
2018-08-27T03:05:29.983Z,7.20
2018-08-27T03:06:30.247Z,4.80
2018-08-27T03:07:29.990Z,7.30
2018-08-27T03:08:29.999Z,7.70
2018-08-27T03:09:30.027Z,9.20
2018-08-27T03:10:30.020Z,5.50
2018-08-27T03:11:30.191Z,5.10
2018-08-27T03:12:30.037Z,4.50
2018-08-27T03:13:30.059Z,6.00
2018-08-27T03:14:30.060Z,5.10
2018-08-27T03:15:30.084Z,3.80
2018-08-27T03:16:30.177Z,4.70
2018-08-27T03:17:30.108Z,6.50
2018-08-27T03:18:30.192Z,6.00
2018-08-27T03:19:30.129Z,3.70
2018-08-27T03:20:30.319Z,5.90
2018-08-27T03:21:30.246Z,8.30
2018-08-27T03:22:30.354Z,4.40
2018-08-27T03:23:30.167Z,6.20
2018-08-27T03:24:30.177Z,5.10
2018-08-27T03:25:30.168Z,5.00
2018-08-27T03:26:30.294Z,4.70
2018-08-27T03:27:30.190Z,3.60
2018-08-27T03:28:30.206Z,5.20
2018-08-27T03:29:30.225Z,3.50
2018-08-27T03:30:30.217Z,3.40
2018-08-27T03:31:30.344Z,3.50
2018-08-27T03:32:30.250Z,4.40
2018-08-27T03:33:30.269Z,3.90
2018-08-27T03:34:30.474Z,3.90
2018-08-27T03:35:30.283Z,9.30
2018-08-27T03:36:30.374Z,8.30
2018-08-27T03:37:30.305Z,5.80
2018-08-27T03:38:30.317Z,4.10
2018-08-27T03:39:30.324Z,5.80
2018-08-27T03:40:30.399Z,5.50
2018-08-27T03:41:30.443Z,5.20
2018-08-27T03:42:30.352Z,4.00
2018-08-27T03:43:30.346Z,4.70
2018-08-27T03:44:30.374Z,6.90
2018-08-27T03:45:30.388Z,4.90
2018-08-27T03:46:30.638Z,4.50
2018-08-27T03:47:30.404Z,5.50
2018-08-27T03:48:30.420Z,5.90
2018-08-27T03:49:30.406Z,6.20
2018-08-27T03:50:30.540Z,3.70
2018-08-27T03:51:30.600Z,5.00
2018-08-27T03:52:30.451Z,5.10
2018-08-27T03:53:30.458Z,4.60
2018-08-27T03:54:30.472Z,6.50
2018-08-27T03:55:30.487Z,6.20
2018-08-27T03:56:30.628Z,6.50
2018-08-27T03:57:30.494Z,5.90
2018-08-27T03:58:30.509Z,4.40
2018-08-27T03:59:30.502Z,4.60
2018-08-27T04:00:30.537Z,5.80
2018-08-27T04:01:30.690Z,4.40
2018-08-27T04:02:30.539Z,3.90
2018-08-27T04:03:30.563Z,7.20
2018-08-27T04:04:30.569Z,4.70
2018-08-27T04:05:30.788Z,6.60
2018-08-27T04:06:30.726Z,4.60
2018-08-27T04:07:30.602Z,4.30
2018-08-27T04:08:30.610Z,4.10
2018-08-27T04:09:31.015Z,6.50
2018-08-27T04:10:30.634Z,6.30
2018-08-27T04:11:30.792Z,7.10
2018-08-27T04:12:30.636Z,6.80
2018-08-27T04:13:30.661Z,4.90
2018-08-27T04:14:30.673Z,5.20
2018-08-27T04:15:30.681Z,5.30
2018-08-27T04:16:30.940Z,5.80
2018-08-27T04:17:30.690Z,6.10
2018-08-27T04:18:30.707Z,5.80
2018-08-27T04:19:30.702Z,5.40
2018-08-27T04:20:30.745Z,6.10
2018-08-27T04:21:31.031Z,5.90
2018-08-27T04:22:30.748Z,6.90
2018-08-27T04:23:30.758Z,6.80
2018-08-27T04:24:30.771Z,5.70
2018-08-27T04:25:30.781Z,5.40
2018-08-27T04:26:30.797Z,5.90
2018-08-27T04:27:30.939Z,7.30
2018-08-27T04:28:30.796Z,7.90
2018-08-27T04:29:30.817Z,7.60
2018-08-27T04:30:30.840Z,7.90
2018-08-27T04:31:30.844Z,7.20
2018-08-27T04:32:30.846Z,6.40
2018-08-27T04:33:30.997Z,8.30
2018-08-27T04:34:30.853Z,6.70
2018-08-27T04:35:30.881Z,4.70
2018-08-27T04:36:30.889Z,6.50
2018-08-27T04:37:30.908Z,6.60
2018-08-27T04:38:31.062Z,6.40
2018-08-27T04:39:30.918Z,9.40
2018-08-27T04:40:30.938Z,6.60
2018-08-27T04:41:30.941Z,5.10
2018-08-27T04:42:30.961Z,6.20
2018-08-27T04:43:31.208Z,5.20
2018-08-27T04:44:30.979Z,6.30
2018-08-27T04:45:30.981Z,6.20
2018-08-27T04:46:30.971Z,8.70
2018-08-27T04:47:30.999Z,7.30
2018-08-27T04:48:31.165Z,9.60
2018-08-27T04:49:31.021Z,3.70
2018-08-27T04:50:31.030Z,4.20
2018-08-27T04:51:31.057Z,5.00
2018-08-27T04:52:31.047Z,4.80
2018-08-27T04:53:31.213Z,4.30
2018-08-27T04:54:31.087Z,4.40
2018-08-27T04:55:31.083Z,4.20
2018-08-27T04:56:31.076Z,4.70
2018-08-27T04:57:31.101Z,5.00
2018-08-27T04:58:31.256Z,5.10
2018-08-27T04:59:31.124Z,5.10
2018-08-27T05:00:31.115Z,4.90
2018-08-27T05:01:31.123Z,5.40
2018-08-27T05:02:31.147Z,5.80
2018-08-27T05:03:31.261Z,6.20
2018-08-27T05:04:31.152Z,4.60
2018-08-27T05:05:31.180Z,4.90
2018-08-27T05:06:31.189Z,5.10
2018-08-27T05:07:31.190Z,6.00
2018-08-27T05:08:31.366Z,4.60
2018-08-27T05:09:31.220Z,5.10
2018-08-27T05:10:31.229Z,5.00
2018-08-27T05:11:31.247Z,6.60
2018-08-27T05:12:31.318Z,5.80
2018-08-27T05:13:31.399Z,8.00
2018-08-27T05:14:31.271Z,6.90
2018-08-27T05:15:31.282Z,7.20
2018-08-27T05:16:31.297Z,8.90
2018-08-27T05:17:31.296Z,9.20
2018-08-27T05:19:31.317Z,7.10
2018-08-27T05:20:31.316Z,5.60
2018-08-27T05:21:31.342Z,5.00
2018-08-27T05:22:31.347Z,5.00
2018-08-27T05:23:31.515Z,8.20
2018-08-27T05:24:31.375Z,4.80
2018-08-27T05:25:31.378Z,6.70
2018-08-27T05:26:31.392Z,6.10
2018-08-27T05:27:31.401Z,6.80
2018-08-27T05:28:31.511Z,6.50
2018-08-27T05:29:31.431Z,7.80
2018-08-27T05:30:31.495Z,7.20
2018-08-27T05:31:31.445Z,6.80
2018-08-27T05:32:31.450Z,5.60
2018-08-27T05:33:31.604Z,10.20
2018-08-27T05:34:31.469Z,9.40
2018-08-27T05:35:31.485Z,5.80
2018-08-27T05:36:31.487Z,6.30
2018-08-27T05:37:31.501Z,7.60
2018-08-27T05:38:31.667Z,7.70
2018-08-27T05:39:31.523Z,7.80
2018-08-27T05:40:31.533Z,5.30
2018-08-27T05:41:31.525Z,8.80
2018-08-27T05:42:31.547Z,5.80
2018-08-27T05:43:31.698Z,8.30
2018-08-27T05:44:31.608Z,7.90
2018-08-27T05:45:31.578Z,4.90
2018-08-27T05:46:31.589Z,5.00
2018-08-27T05:47:31.654Z,6.60
2018-08-27T05:48:31.865Z,4.20
2018-08-27T05:49:31.605Z,4.20
2018-08-27T05:50:31.631Z,4.00
2018-08-27T05:51:31.637Z,3.80
2018-08-27T05:52:31.647Z,6.60
2018-08-27T05:53:31.644Z,4.00
2018-08-27T05:54:31.832Z,6.90
2018-08-27T05:55:31.667Z,4.40
2018-08-27T05:56:31.688Z,6.50
2018-08-27T05:57:31.698Z,7.90
2018-08-27T05:58:31.711Z,5.90
2018-08-27T05:59:31.824Z,6.70
2018-08-27T06:00:31.725Z,6.20
2018-08-27T06:01:31.752Z,6.90
2018-08-27T06:02:31.747Z,6.70
2018-08-27T06:03:31.757Z,4.50
2018-08-27T06:04:31.761Z,5.30
2018-08-27T06:05:31.877Z,7.40
2018-08-27T06:06:31.788Z,6.80
2018-08-27T06:07:31.791Z,10.10
2018-08-27T06:08:31.795Z,9.90
2018-08-27T06:09:31.817Z,7.90
2018-08-27T06:10:31.826Z,9.60
2018-08-27T06:11:32.094Z,8.50
2018-08-27T06:12:31.873Z,6.80
2018-08-27T06:13:31.842Z,8.10
2018-08-27T06:14:31.864Z,7.40
2018-08-27T06:15:31.876Z,6.50
2018-08-27T06:16:32.051Z,6.80
2018-08-27T06:17:31.898Z,4.70
2018-08-27T06:18:31.908Z,6.60
2018-08-27T06:19:31.916Z,5.90
2018-08-27T06:20:31.934Z,7.50
2018-08-27T06:21:32.090Z,6.30
2018-08-27T06:22:31.931Z,4.80
2018-08-27T06:23:31.964Z,5.80
2018-08-27T06:24:31.964Z,5.90
2018-08-27T06:25:31.974Z,3.10
2018-08-27T06:26:32.140Z,3.00
2018-08-27T06:27:31.999Z,3.60
2018-08-27T06:28:32.005Z,3.80
2018-08-27T06:29:32.013Z,1.70
2018-08-27T06:30:32.014Z,2.20
2018-08-27T06:31:32.168Z,3.00
2018-08-27T06:32:32.107Z,3.00
2018-08-27T06:33:32.055Z,3.90
2018-08-27T06:34:32.066Z,6.60
2018-08-27T06:35:32.080Z,5.60
2018-08-27T06:36:33.292Z,7.50
2018-08-27T06:37:32.105Z,7.80
2018-08-27T06:38:32.101Z,7.20
2018-08-27T06:39:32.101Z,9.00
2018-08-27T06:40:32.124Z,5.80
2018-08-27T06:41:32.281Z,7.80
2018-08-27T06:42:32.146Z,4.00
2018-08-27T06:43:32.155Z,2.50
2018-08-27T06:44:32.205Z,3.70
2018-08-27T06:45:32.172Z,3.70
2018-08-27T06:46:32.323Z,2.20
2018-08-27T06:47:32.199Z,3.90
2018-08-27T06:48:32.211Z,4.80
2018-08-27T06:49:32.216Z,3.70
2018-08-27T06:50:32.228Z,3.60
2018-08-27T06:51:32.380Z,4.70
2018-08-27T06:52:32.248Z,3.00
2018-08-27T06:53:32.255Z,2.50
2018-08-27T06:54:32.265Z,7.60
2018-08-27T06:55:32.276Z,6.40
2018-08-27T06:56:32.448Z,5.40
2018-08-27T06:57:32.297Z,2.80
2018-08-27T06:58:32.316Z,3.80
2018-08-27T06:59:32.317Z,4.60
2018-08-27T07:00:32.313Z,3.90
2018-08-27T07:01:32.468Z,2.10
2018-08-27T07:02:32.347Z,3.20
2018-08-27T07:03:32.355Z,1.60
2018-08-27T07:04:32.365Z,2.00
2018-08-27T07:05:32.374Z,3.50
2018-08-27T07:06:32.518Z,2.10
2018-08-27T07:07:32.422Z,5.40
2018-08-27T07:08:32.404Z,3.10
2018-08-27T07:09:32.417Z,1.80
2018-08-27T07:10:32.427Z,1.20
2018-08-27T07:11:32.611Z,1.70
2018-08-27T07:12:32.436Z,2.90
2018-08-27T07:13:32.448Z,5.40
2018-08-27T07:14:32.461Z,5.00
2018-08-27T07:15:32.469Z,3.40
2018-08-27T07:16:32.678Z,3.70
2018-08-27T07:17:32.492Z,4.40
2018-08-27T07:18:32.496Z,3.10
2018-08-27T07:19:32.514Z,4.00
2018-08-27T07:20:32.518Z,3.40
2018-08-27T07:21:32.836Z,3.70
2018-08-27T07:22:32.541Z,5.80
2018-08-27T07:23:32.558Z,3.80
2018-08-27T07:24:32.549Z,1.40
2018-08-27T07:25:32.572Z,1.80
2018-08-27T07:26:32.815Z,5.40
2018-08-27T07:27:32.625Z,1.40
2018-08-27T07:28:32.601Z,0.70
2018-08-27T07:29:32.608Z,4.70
2018-08-27T07:30:32.623Z,3.60
2018-08-27T07:31:32.629Z,2.20
2018-08-27T07:32:32.786Z,1.00
2018-08-27T07:33:32.648Z,7.70
2018-08-27T07:34:32.662Z,5.00
2018-08-27T07:35:32.699Z,7.60
2018-08-27T07:36:32.764Z,4.60
2018-08-27T07:37:32.840Z,0.70
2018-08-27T07:38:32.699Z,1.30
2018-08-27T07:39:32.706Z,3.70
2018-08-27T07:40:32.718Z,0.80
2018-08-27T07:41:32.726Z,2.90
2018-08-27T07:42:32.733Z,1.30
2018-08-27T07:43:33.011Z,2.90
2018-08-27T07:44:32.760Z,3.90
2018-08-27T07:45:32.770Z,1.00
2018-08-27T07:46:32.780Z,2.10
2018-08-27T07:47:32.786Z,2.70
2018-08-27T07:48:32.797Z,5.40
2018-08-27T07:49:32.957Z,10.10
2018-08-27T07:50:32.856Z,9.60
2018-08-27T07:51:32.825Z,1.80
2018-08-27T07:52:32.841Z,1.80
2018-08-27T07:53:32.849Z,0.70
2018-08-27T07:54:33.618Z,0.90
2018-08-27T07:55:32.898Z,1.90
2018-08-27T07:56:32.869Z,7.40
2018-08-27T07:57:33.089Z,5.00
2018-08-27T07:58:32.938Z,4.60
2018-08-27T07:59:33.152Z,7.70
2018-08-27T08:00:32.898Z,17.40
2018-08-27T08:01:32.926Z,1.20
2018-08-27T08:02:32.938Z,9.10
2018-08-27T08:03:32.947Z,11.70
2018-08-27T08:04:33.205Z,3.40
2018-08-27T08:05:32.961Z,2.50
2018-08-27T08:06:32.970Z,2.00
2018-08-27T08:07:32.964Z,1.60
2018-08-27T08:08:32.990Z,5.10
2018-08-27T08:09:33.101Z,12.50
2018-08-27T08:10:33.044Z,4.30
2018-08-27T08:11:33.021Z,2.20
2018-08-27T08:12:33.026Z,2.10
2018-08-27T08:13:33.039Z,2.90
2018-08-27T08:14:33.197Z,8.00
2018-08-27T08:15:33.064Z,3.60
2018-08-27T08:16:33.070Z,3.50
2018-08-27T08:17:33.074Z,2.40
2018-08-27T08:18:33.092Z,4.00
2018-08-27T08:19:33.245Z,2.80
2018-08-27T08:20:33.110Z,2.00
2018-08-27T08:21:33.124Z,2.20
2018-08-27T08:22:33.126Z,2.00
2018-08-27T08:23:33.123Z,2.90
2018-08-27T08:24:33.285Z,3.40
2018-08-27T08:25:33.161Z,1.90
2018-08-27T08:26:33.158Z,2.90
2018-08-27T08:27:33.177Z,2.90
2018-08-27T08:28:33.184Z,2.40
2018-08-27T08:29:33.444Z,3.50
2018-08-27T08:30:33.190Z,3.50
2018-08-27T08:31:33.211Z,5.50
2018-08-27T08:32:33.223Z,2.00
2018-08-27T08:33:33.222Z,4.20
2018-08-27T08:34:33.329Z,3.60
2018-08-27T08:35:33.253Z,3.30
2018-08-27T08:36:33.262Z,3.40
2018-08-27T08:37:33.278Z,2.10
2018-08-27T08:38:33.277Z,2.40
2018-08-27T08:39:33.528Z,2.50
2018-08-27T08:40:33.302Z,6.40
2018-08-27T08:41:33.315Z,8.10
2018-08-27T08:42:33.325Z,6.00
2018-08-27T08:43:33.314Z,3.40
2018-08-27T08:44:33.494Z,10.80
2018-08-27T08:45:33.351Z,7.00
2018-08-27T08:46:33.360Z,11.10
2018-08-27T08:47:33.373Z,13.30
2018-08-27T08:48:33.383Z,14.30
2018-08-27T08:49:33.544Z,2.70
2018-08-27T08:50:33.396Z,2.10
2018-08-27T08:51:33.411Z,2.80
2018-08-27T08:52:33.412Z,4.60
2018-08-27T08:53:33.505Z,16.50
2018-08-27T08:54:33.587Z,15.40
2018-08-27T08:55:33.449Z,3.40
2018-08-27T08:56:33.464Z,8.30
2018-08-27T08:57:34.010Z,2.30
2018-08-27T08:58:33.459Z,2.80
2018-08-27T08:59:33.640Z,3.90
2018-08-27T09:00:33.502Z,3.80
2018-08-27T09:01:33.539Z,3.80
2018-08-27T09:02:33.507Z,2.90
2018-08-27T09:03:33.523Z,4.90
2018-08-27T09:04:33.686Z,4.80
2018-08-27T09:05:33.548Z,3.40
2018-08-27T09:06:33.556Z,4.90
2018-08-27T09:07:33.553Z,2.10
2018-08-27T09:08:33.596Z,6.30
2018-08-27T09:09:33.739Z,6.60
2018-08-27T09:10:33.589Z,7.20
2018-08-27T09:11:33.604Z,3.30
2018-08-27T09:12:33.611Z,2.50
2018-08-27T09:13:33.613Z,2.50
2018-08-27T09:14:33.773Z,2.20
2018-08-27T09:15:33.644Z,2.10
2018-08-27T09:16:33.640Z,2.80
2018-08-27T09:17:33.724Z,1.80
2018-08-27T09:18:33.666Z,3.40
2018-08-27T09:19:33.684Z,4.70
2018-08-27T09:20:33.943Z,3.30
2018-08-27T09:21:33.703Z,2.90
2018-08-27T09:22:33.709Z,2.70
2018-08-27T09:23:33.763Z,2.10
2018-08-27T09:24:33.728Z,2.30
2018-08-27T09:25:33.736Z,4.90
2018-08-27T09:26:33.904Z,4.00
2018-08-27T09:27:33.748Z,2.90
2018-08-27T09:28:33.767Z,2.30
2018-08-27T09:29:33.774Z,2.00
2018-08-27T09:30:33.784Z,3.80
2018-08-27T09:31:33.795Z,2.50
2018-08-27T09:32:33.957Z,2.90
2018-08-27T09:33:33.819Z,4.10
2018-08-27T09:34:33.832Z,3.60
2018-08-27T09:35:33.843Z,3.40
2018-08-27T09:36:33.849Z,3.90
2018-08-27T09:37:34.088Z,5.30
2018-08-27T09:38:33.865Z,4.90
2018-08-27T09:39:33.864Z,7.30
2018-08-27T09:40:33.888Z,6.30
2018-08-27T09:41:33.914Z,4.80
2018-08-27T09:42:34.055Z,3.90
2018-08-27T09:43:33.913Z,4.90
2018-08-27T09:44:33.924Z,6.40
2018-08-27T09:45:33.947Z,14.80
2018-08-27T09:46:33.945Z,3.10
2018-08-27T09:47:34.045Z,3.50
2018-08-27T09:48:33.961Z,9.00
2018-08-27T09:49:33.976Z,3.70
2018-08-27T09:50:33.982Z,5.10
2018-08-27T09:51:33.998Z,5.10
2018-08-27T09:52:34.156Z,3.60
2018-08-27T09:53:34.009Z,5.40
2018-08-27T09:54:34.018Z,6.20
2018-08-27T09:55:34.020Z,10.00
2018-08-27T09:56:34.041Z,5.40
2018-08-27T09:57:34.307Z,6.60
2018-08-27T09:58:34.102Z,5.70
2018-08-27T09:59:34.071Z,6.30
2018-08-27T10:00:34.083Z,3.30
2018-08-27T10:01:34.091Z,6.30
2018-08-27T10:02:34.239Z,2.50
2018-08-27T10:03:34.112Z,6.20
2018-08-27T10:04:34.122Z,2.90
2018-08-27T10:05:34.135Z,6.50
2018-08-27T10:06:34.141Z,4.30
2018-08-27T10:07:34.297Z,3.20
2018-08-27T10:08:34.157Z,3.80
2018-08-27T10:09:34.177Z,6.30
2018-08-27T10:10:34.170Z,5.10
2018-08-27T10:11:34.196Z,5.50
2018-08-27T10:12:34.446Z,4.50
2018-08-27T10:13:34.209Z,3.40
2018-08-27T10:14:34.220Z,3.60
2018-08-27T10:15:34.216Z,4.40
2018-08-27T10:16:34.242Z,3.30
2018-08-27T10:17:34.500Z,3.20
2018-08-27T10:18:34.266Z,1.90
2018-08-27T10:19:34.267Z,5.60
2018-08-27T10:20:34.267Z,1.20
2018-08-27T10:21:34.290Z,1.60
2018-08-27T10:22:34.629Z,2.30
2018-08-27T10:23:34.318Z,7.20
2018-08-27T10:24:34.311Z,7.30
2018-08-27T10:25:34.333Z,3.70
2018-08-27T10:26:34.401Z,9.80
2018-08-27T10:27:34.500Z,10.40
2018-08-27T10:28:34.358Z,14.70
2018-08-27T10:29:34.355Z,5.50
2018-08-27T10:30:34.382Z,3.80
2018-08-27T10:31:34.393Z,2.90
2018-08-27T10:32:34.554Z,5.80
2018-08-27T10:33:34.410Z,3.20
2018-08-27T10:34:34.421Z,2.80
2018-08-27T10:35:34.430Z,3.00
2018-08-27T10:36:34.443Z,8.40
2018-08-27T10:37:34.554Z,8.70
2018-08-27T10:38:34.469Z,2.20
2018-08-27T10:39:34.482Z,2.90
2018-08-27T10:40:34.476Z,2.90
2018-08-27T10:41:34.504Z,4.30
2018-08-27T10:42:34.662Z,4.60
2018-08-27T10:43:34.518Z,8.20
2018-08-27T10:44:34.527Z,3.60
2018-08-27T10:45:34.542Z,4.20
2018-08-27T10:46:34.535Z,2.00
2018-08-27T10:47:34.713Z,3.30
2018-08-27T10:48:34.567Z,3.30
2018-08-27T10:49:34.579Z,3.50
2018-08-27T10:50:34.634Z,1.70
2018-08-27T10:51:34.603Z,2.00
2018-08-27T10:52:34.850Z,2.90
2018-08-27T10:53:34.625Z,3.80
2018-08-27T10:54:34.638Z,3.00
2018-08-27T10:55:34.646Z,2.30
2018-08-27T10:56:34.660Z,3.20
2018-08-27T10:57:34.674Z,1.70
2018-08-27T10:58:34.929Z,2.40
2018-08-27T10:59:34.686Z,3.20
2018-08-27T11:00:34.699Z,2.60
2018-08-27T11:01:34.723Z,3.30
2018-08-27T11:02:34.712Z,1.60
2018-08-27T11:03:34.736Z,4.10
2018-08-27T11:04:35.048Z,4.50
2018-08-27T11:05:34.744Z,4.90
2018-08-27T11:06:34.765Z,4.30
2018-08-27T11:07:34.776Z,2.70
2018-08-27T11:08:34.773Z,2.80
2018-08-27T11:09:34.896Z,3.10
2018-08-27T11:10:34.862Z,3.40
2018-08-27T11:11:34.820Z,1.80
2018-08-27T11:12:34.830Z,3.40
2018-08-27T11:13:34.842Z,1.90
2018-08-27T11:14:34.954Z,2.80
2018-08-27T11:15:34.872Z,2.70
2018-08-27T11:16:34.860Z,2.40
2018-08-27T11:17:34.886Z,5.50
2018-08-27T11:18:34.899Z,3.50
2018-08-27T11:19:35.103Z,4.40
2018-08-27T11:20:35.107Z,5.20
2018-08-27T11:21:34.935Z,2.70
2018-08-27T11:22:34.927Z,6.90
2018-08-27T11:23:34.982Z,6.80
2018-08-27T11:24:35.070Z,8.00
2018-08-27T11:25:34.974Z,9.90
2018-08-27T11:26:35.104Z,9.40
2018-08-27T11:27:35.000Z,8.80
2018-08-27T11:28:34.994Z,5.00
2018-08-27T11:29:35.171Z,7.50
2018-08-27T11:30:35.033Z,5.50
2018-08-27T11:31:35.040Z,4.90
2018-08-27T11:32:35.060Z,5.00
2018-08-27T11:33:35.069Z,6.00
2018-08-27T11:34:35.228Z,10.20
2018-08-27T11:35:35.086Z,8.70
2018-08-27T11:36:35.103Z,11.00
2018-08-27T11:37:35.099Z,6.80
2018-08-27T11:38:35.124Z,8.40
2018-08-27T11:39:35.236Z,10.00
2018-08-27T11:40:35.142Z,10.30
2018-08-27T11:41:35.164Z,10.20
2018-08-27T11:42:35.168Z,17.60
2018-08-27T11:43:35.167Z,27.10
2018-08-27T11:44:35.297Z,18.60
2018-08-27T11:45:35.203Z,20.30
2018-08-27T11:46:35.212Z,24.10
2018-08-27T11:47:35.234Z,11.70
2018-08-27T11:48:35.239Z,17.30
2018-08-27T11:49:35.351Z,14.20
2018-08-27T11:50:35.384Z,14.10
2018-08-27T11:51:35.283Z,12.80
2018-08-27T11:52:35.270Z,24.50
2018-08-27T11:53:35.299Z,19.40
2018-08-27T11:54:35.398Z,19.20
2018-08-27T11:55:35.324Z,22.00
2018-08-27T11:56:35.335Z,16.90
2018-08-27T11:57:35.339Z,15.70
2018-08-27T11:58:35.411Z,19.20
2018-08-27T11:59:35.616Z,20.10
2018-08-27T12:00:35.372Z,23.20
2018-08-27T12:01:35.384Z,26.10
2018-08-27T12:02:35.413Z,34.20
2018-08-27T12:03:35.408Z,20.60
2018-08-27T12:04:35.532Z,26.10
2018-08-27T12:05:35.451Z,25.40
2018-08-27T12:06:35.462Z,16.20
2018-08-27T12:07:35.478Z,17.50
2018-08-27T12:08:35.488Z,14.50
2018-08-27T12:09:35.601Z,18.00
2018-08-27T12:10:35.496Z,20.30
2018-08-27T12:11:35.508Z,17.60
2018-08-27T12:12:35.537Z,11.50
2018-08-27T12:13:35.556Z,17.10
2018-08-27T12:14:35.648Z,16.20
2018-08-27T12:15:35.574Z,18.40
2018-08-27T12:16:35.597Z,20.60
2018-08-27T12:17:35.605Z,20.80
2018-08-27T12:18:35.620Z,24.10
2018-08-27T12:19:35.710Z,17.50
2018-08-27T12:20:35.636Z,10.60
2018-08-27T12:21:35.646Z,9.80
2018-08-27T12:22:35.669Z,10.70
2018-08-27T12:23:35.890Z,8.60
2018-08-27T12:24:35.786Z,9.80
2018-08-27T12:25:35.690Z,10.40
2018-08-27T12:26:35.727Z,11.60
2018-08-27T12:27:35.737Z,12.80
2018-08-27T12:28:35.756Z,8.70
2018-08-27T12:29:35.904Z,8.30
2018-08-27T12:30:35.779Z,7.80
2018-08-27T12:31:35.790Z,11.20
2018-08-27T12:32:35.804Z,8.50
2018-08-27T12:33:35.821Z,7.10
2018-08-27T12:34:35.920Z,5.90
2018-08-27T12:35:35.838Z,7.10
2018-08-27T12:36:35.861Z,8.20
2018-08-27T12:37:35.921Z,5.60
2018-08-27T12:38:35.891Z,6.70
2018-08-27T12:39:35.991Z,8.70
2018-08-27T12:40:35.981Z,7.50
2018-08-27T12:41:35.928Z,7.30
2018-08-27T12:42:35.942Z,5.70
2018-08-27T12:43:35.972Z,6.20
2018-08-27T12:44:36.128Z,6.30
2018-08-27T12:45:35.984Z,7.90
2018-08-27T12:46:35.993Z,11.90
2018-08-27T12:47:36.011Z,10.00
2018-08-27T12:48:36.021Z,11.20
2018-08-27T12:49:36.185Z,9.90
2018-08-27T12:50:36.046Z,8.80
2018-08-27T12:51:36.053Z,8.30
2018-08-27T12:52:36.076Z,15.40
2018-08-27T12:53:36.092Z,9.70
2018-08-27T12:54:36.251Z,11.30
2018-08-27T12:55:36.112Z,10.90
2018-08-27T12:56:36.131Z,12.30
2018-08-27T12:57:36.146Z,10.20
2018-08-27T12:58:36.268Z,12.30
2018-08-27T12:59:36.271Z,12.40
2018-08-27T13:00:36.182Z,10.00
2018-08-27T13:01:36.184Z,12.20
2018-08-27T13:02:36.208Z,11.90
2018-08-27T13:03:36.219Z,4.60
2018-08-27T13:04:36.337Z,7.70
2018-08-27T13:05:36.308Z,9.20
2018-08-27T13:06:36.260Z,7.40
2018-08-27T13:07:36.297Z,5.80
2018-08-27T13:08:36.294Z,5.30
2018-08-27T13:09:36.411Z,4.00
2018-08-27T13:10:36.325Z,8.00
2018-08-27T13:11:36.332Z,6.80
2018-08-27T13:12:36.444Z,11.60
2018-08-27T13:13:36.360Z,7.40
2018-08-27T13:14:36.624Z,4.50
2018-08-27T13:15:36.371Z,4.60